Time;durP1;ratioP1;P1;durP2;ratioP2;P2;SDS_P1;SDS_P2;PMS_P1;PMS_P2;Temp;Humidity;BMP_temperature;BMP_pressure;BME280_temperature;BME280_humidity;BME280_pressure;Samples;Min_cycle;Max_cycle;Signal;HPM_P1;HPM_P2
2020/12/22 00:00:19;;;;;;;75.68;10.15;;;13.10;99.90;;;;;;5070735;28;20032;-55
2020/12/22 00:02:46;;;;;;;87.93;10.43;;;13.10;99.90;;;;;;5070472;28;20082;-55
2020/12/22 00:05:12;;;;;;;84.38;10.43;;;13.10;99.90;;;;;;5070659;28;20032;-55
2020/12/22 00:07:39;;;;;;;96.30;10.95;;;13.10;99.90;;;;;;5070266;28;20108;-55
2020/12/22 00:10:07;;;;;;;99.00;9.75;;;13.10;99.90;;;;;;5070794;28;20493;-58
2020/12/22 00:12:34;;;;;;;69.97;9.00;;;13.10;99.90;;;;;;5070069;28;20044;-60
2020/12/22 00:15:00;;;;;;;59.17;7.53;;;13.10;99.90;;;;;;5070200;28;20025;-57
2020/12/22 00:17:26;;;;;;;76.55;8.10;;;13.10;99.90;;;;;;5070269;28;20517;-56
2020/12/22 00:19:52;;;;;;;64.40;7.75;;;13.10;99.90;;;;;;5070320;28;20520;-55
2020/12/22 00:22:18;;;;;;;47.95;8.10;;;13.10;99.90;;;;;;5070223;28;20037;-60
2020/12/22 00:24:46;;;;;;;72.30;7.25;;;13.10;99.90;;;;;;5070003;28;20098;-60
2020/12/22 00:27:15;;;;;;;47.45;6.90;;;13.10;99.90;;;;;;5069862;28;20106;-58
2020/12/22 00:29:40;;;;;;;54.65;6.22;;;13.10;99.90;;;;;;5070176;28;20108;-58
2020/12/22 00:32:06;;;;;;;52.53;6.90;;;13.10;99.90;;;;;;5070139;28;20045;-56
2020/12/22 00:34:32;;;;;;;53.35;6.65;;;13.00;99.90;;;;;;5069943;28;20032;-59
2020/12/22 00:37:01;;;;;;;44.97;6.38;;;13.00;99.90;;;;;;5070148;28;20363;-61
2020/12/22 00:39:28;;;;;;;48.60;5.82;;;13.00;99.90;;;;;;5051745;28;20040;-60
2020/12/22 00:41:57;;;;;;;43.58;5.63;;;13.00;99.90;;;;;;5070156;28;20445;-61
2020/12/22 00:44:23;;;;;;;56.38;6.75;;;13.00;99.90;;;;;;5069854;28;20025;-59
2020/12/22 00:46:50;;;;;;;46.70;5.07;;;13.00;99.90;;;;;;5070895;28;20490;-59
2020/12/22 00:49:15;;;;;;;56.40;6.95;;;13.00;99.90;;;;;;5070045;28;20051;-58
2020/12/22 00:51:41;;;;;;;67.63;7.28;;;13.00;99.90;;;;;;5069766;28;20499;-60
2020/12/22 00:54:07;;;;;;;53.00;7.18;;;13.00;99.90;;;;;;5069623;28;20359;-60
2020/12/22 00:56:32;;;;;;;54.92;7.05;;;13.00;99.90;;;;;;5069617;28;20056;-61
2020/12/22 00:58:58;;;;;;;71.20;7.93;;;13.00;99.90;;;;;;5069514;28;20051;-59
2020/12/22 01:01:24;;;;;;;57.78;7.78;;;12.90;99.90;;;;;;5069493;28;20040;-59
2020/12/22 01:03:49;;;;;;;69.55;7.47;;;12.90;99.90;;;;;;5069257;28;20027;-60
2020/12/22 01:06:15;;;;;;;49.53;6.70;;;12.90;99.90;;;;;;5069305;28;20785;-59
2020/12/22 01:08:45;;;;;;;64.18;8.50;;;12.90;99.90;;;;;;5069026;28;20024;-60
2020/12/22 01:11:10;;;;;;;74.53;7.20;;;12.90;99.90;;;;;;5069137;28;20141;-59
2020/12/22 01:13:36;;;;;;;63.85;7.85;;;12.90;99.90;;;;;;5068489;28;20052;-59
2020/12/22 01:16:02;;;;;;;60.80;8.02;;;12.90;99.90;;;;;;5067849;28;20044;-58
2020/12/22 01:18:28;;;;;;;60.63;6.22;;;12.90;99.90;;;;;;5067399;28;20059;-59
2020/12/22 01:20:54;;;;;;;68.18;7.68;;;12.90;99.90;;;;;;5067934;28;20029;-59
2020/12/22 01:23:19;;;;;;;62.85;8.05;;;12.90;99.90;;;;;;5067502;28;20498;-52
2020/12/22 01:25:45;;;;;;;74.90;9.68;;;12.90;99.90;;;;;;5068091;28;20157;-57
2020/12/22 01:28:11;;;;;;;60.88;7.70;;;12.90;99.90;;;;;;5069945;28;20533;-58
2020/12/22 01:30:39;;;;;;;59.72;6.97;;;12.90;99.90;;;;;;5068717;28;20052;-52
2020/12/22 01:33:05;;;;;;;55.25;7.35;;;12.90;99.90;;;;;;5069234;28;20021;-59
2020/12/22 01:35:31;;;;;;;52.78;6.80;;;12.90;99.90;;;;;;5068973;28;20036;-59
2020/12/22 01:37:57;;;;;;;78.70;7.93;;;12.90;99.90;;;;;;5068282;28;20371;-58
2020/12/22 01:40:23;;;;;;;71.25;7.57;;;12.80;99.90;;;;;;5068787;28;20718;-60
2020/12/22 01:42:49;;;;;;;68.05;8.60;;;12.90;99.90;;;;;;5068602;28;20024;-61
2020/12/22 01:45:15;;;;;;;56.13;6.90;;;12.90;99.90;;;;;;5069182;28;20139;-59
2020/12/22 01:47:47;;;;;;;70.35;8.05;;;12.90;99.90;;;;;;5068574;28;20162;-61
2020/12/22 01:50:15;;;;;;;52.10;7.17;;;12.90;99.90;;;;;;5069163;28;20103;-61
2020/12/22 01:52:41;;;;;;;57.50;7.82;;;12.90;99.90;;;;;;5068373;28;20800;-60
2020/12/22 01:55:07;;;;;;;81.68;8.02;;;12.90;99.90;;;;;;5068678;28;20032;-58
2020/12/22 01:57:33;;;;;;;57.90;7.57;;;12.90;99.90;;;;;;5068201;28;20073;-56
2020/12/22 02:00:03;;;;;;;55.67;5.65;;;12.90;99.90;;;;;;5050553;28;20029;-59
2020/12/22 02:02:29;;;;;;;52.83;7.55;;;12.90;99.90;;;;;;5068507;28;20035;-57
2020/12/22 02:04:54;;;;;;;44.75;6.15;;;12.80;99.90;;;;;;5068404;28;20032;-57
2020/12/22 02:07:21;;;;;;;58.50;8.63;;;12.80;99.90;;;;;;5067993;28;20031;-59
2020/12/22 02:09:49;;;;;;;59.42;6.13;;;12.80;99.90;;;;;;5068459;28;20054;-59
2020/12/22 02:12:18;;;;;;;62.75;6.95;;;12.80;99.90;;;;;;5068211;28;20503;-56
2020/12/22 02:14:46;;;;;;;40.13;5.47;;;12.80;99.90;;;;;;5068436;28;20455;-58
2020/12/22 02:17:16;;;;;;;52.83;7.07;;;12.80;99.90;;;;;;5068155;28;20067;-56
2020/12/22 02:19:42;;;;;;;73.53;7.28;;;12.70;99.90;;;;;;5068100;28;20722;-58
2020/12/22 02:22:08;;;;;;;58.13;7.32;;;12.70;99.90;;;;;;5068656;28;20045;-58
2020/12/22 02:24:34;;;;;;;52.20;6.97;;;12.70;99.90;;;;;;5068133;28;20045;-57
2020/12/22 02:27:01;;;;;;;58.67;6.82;;;12.70;99.90;;;;;;5068482;28;20028;-58
2020/12/22 02:29:27;;;;;;;58.75;7.32;;;12.70;99.90;;;;;;5067959;28;20110;-55
2020/12/22 02:31:53;;;;;;;62.97;7.65;;;12.60;99.90;;;;;;5070378;28;20039;-58
2020/12/22 02:34:19;;;;;;;51.22;6.05;;;12.60;99.90;;;;;;5068771;28;20033;-60
2020/12/22 02:36:45;;;;;;;43.97;5.75;;;12.60;99.90;;;;;;5068682;28;20082;-55
2020/12/22 02:39:10;;;;;;;46.97;4.72;;;12.60;99.90;;;;;;5068692;28;20108;-58
2020/12/22 02:41:36;;;;;;;41.72;5.25;;;12.60;99.90;;;;;;5069251;28;20071;-58
2020/12/22 02:44:02;;;;;;;59.13;6.90;;;12.60;99.90;;;;;;5071330;28;20052;-56
2020/12/22 02:46:28;;;;;;;52.13;8.20;;;12.60;99.90;;;;;;5080338;28;20115;-56
2020/12/22 02:48:53;;;;;;;46.95;7.07;;;12.70;99.90;;;;;;5088951;28;20043;-59
2020/12/22 02:51:19;;;;;;;60.50;7.07;;;12.60;99.90;;;;;;5089315;28;20039;-58
2020/12/22 02:53:45;;;;;;;63.17;8.38;;;12.60;99.90;;;;;;5089463;28;20028;-58
2020/12/22 02:56:10;;;;;;;60.95;8.38;;;12.60;99.90;;;;;;5089113;28;20107;-57
2020/12/22 02:58:36;;;;;;;76.68;8.75;;;12.60;99.90;;;;;;5089155;28;20068;-54
2020/12/22 03:01:03;;;;;;;41.58;5.97;;;12.60;99.90;;;;;;5089351;28;20032;-52
2020/12/22 03:03:28;;;;;;;83.28;8.85;;;12.60;99.90;;;;;;5088898;28;20039;-53
2020/12/22 03:05:54;;;;;;;69.28;8.35;;;12.70;99.90;;;;;;5089074;28;20032;-53
2020/12/22 03:08:20;;;;;;;67.10;6.82;;;12.70;99.90;;;;;;5088908;28;20111;-55
2020/12/22 03:10:45;;;;;;;58.58;7.70;;;12.60;99.90;;;;;;5088900;28;20093;-51
2020/12/22 03:13:11;;;;;;;75.57;8.73;;;12.60;99.90;;;;;;5090896;28;20749;-54
2020/12/22 03:15:37;;;;;;;68.28;9.20;;;12.60;99.90;;;;;;5093165;28;20553;-51
2020/12/22 03:18:04;;;;;;;82.05;9.00;;;12.60;99.90;;;;;;5089077;28;20117;-49
2020/12/22 03:20:30;;;;;;;75.28;9.68;;;12.60;99.90;;;;;;5092847;28;20024;-51
2020/12/22 03:22:55;;;;;;;74.75;10.40;;;12.60;99.90;;;;;;5092969;28;20159;-51
2020/12/22 03:25:21;;;;;;;77.50;8.80;;;12.60;99.90;;;;;;5092690;28;20042;-50
2020/12/22 03:27:47;;;;;;;70.00;7.55;;;12.60;99.90;;;;;;5092928;28;20478;-51
2020/12/22 03:30:15;;;;;;;61.30;8.13;;;12.60;99.90;;;;;;5092907;28;20036;-52
2020/12/22 03:32:41;;;;;;;71.18;9.02;;;12.60;99.90;;;;;;5093347;28;20034;-50
2020/12/22 03:35:08;;;;;;;66.35;7.95;;;12.60;99.90;;;;;;5093037;28;20381;-51
2020/12/22 03:37:35;;;;;;;65.00;8.15;;;12.60;99.90;;;;;;5092718;28;20027;-51
2020/12/22 03:40:04;;;;;;;64.18;9.20;;;12.70;99.90;;;;;;5092930;28;20081;-51
2020/12/22 03:42:30;;;;;;;68.57;7.47;;;12.60;99.90;;;;;;5091865;28;20028;-50
2020/12/22 03:44:55;;;;;;;75.43;9.43;;;12.60;99.90;;;;;;5092269;28;20062;-52
2020/12/22 03:47:21;;;;;;;67.15;7.18;;;12.70;99.90;;;;;;5091524;28;20051;-52
2020/12/22 03:49:47;;;;;;;74.15;9.43;;;12.70;99.90;;;;;;5091949;28;20038;-52
2020/12/22 03:52:13;;;;;;;77.60;8.90;;;12.60;99.90;;;;;;5092304;28;20054;-50
2020/12/22 03:54:38;;;;;;;79.35;9.10;;;12.60;99.90;;;;;;5092315;28;20028;-53
2020/12/22 03:57:05;;;;;;;82.10;10.32;;;12.60;99.90;;;;;;5091954;28;20448;-51
2020/12/22 03:59:32;;;;;;;84.47;10.48;;;12.60;99.90;;;;;;5092237;28;20118;-51
2020/12/22 04:01:59;;;;;;;82.65;8.90;;;12.60;99.90;;;;;;5092172;28;20040;-52
2020/12/22 04:04:25;;;;;;;78.78;8.13;;;12.60;99.90;;;;;;5091764;28;20064;-50
2020/12/22 04:06:52;;;;;;;56.40;7.47;;;12.60;99.90;;;;;;5091816;28;20445;-49
2020/12/22 04:09:18;;;;;;;65.82;7.60;;;12.60;99.90;;;;;;5091786;28;20035;-50
2020/12/22 04:11:44;;;;;;;58.58;7.80;;;12.60;99.90;;;;;;5091771;28;20672;-51
2020/12/22 04:14:10;;;;;;;78.03;9.68;;;12.60;99.90;;;;;;5090861;28;20496;-49
2020/12/22 04:16:37;;;;;;;67.25;7.18;;;12.50;99.90;;;;;;5090450;28;20097;-57
2020/12/22 04:19:03;;;;;;;63.65;8.07;;;12.50;99.90;;;;;;5090732;28;20040;-51
2020/12/22 04:21:30;;;;;;;74.13;8.77;;;12.50;99.90;;;;;;5090979;28;20036;-49
2020/12/22 04:23:56;;;;;;;64.70;8.25;;;12.50;99.90;;;;;;5090915;28;20497;-50
2020/12/22 04:26:22;;;;;;;66.20;7.53;;;12.50;99.90;;;;;;5091742;28;20059;-50
2020/12/22 04:28:48;;;;;;;50.72;7.57;;;12.40;99.90;;;;;;5091160;28;20856;-51
2020/12/22 04:31:14;;;;;;;79.90;7.85;;;12.40;99.90;;;;;;5091611;28;20020;-52
2020/12/22 04:33:39;;;;;;;47.13;5.68;;;12.50;99.90;;;;;;5090397;28;20097;-51
2020/12/22 04:36:05;;;;;;;40.80;5.20;;;12.50;99.90;;;;;;5090316;28;20040;-52
2020/12/22 04:38:32;;;;;;;56.30;7.80;;;12.50;99.90;;;;;;5089466;28;20036;-53
2020/12/22 04:40:59;;;;;;;49.63;7.20;;;12.50;99.90;;;;;;5089241;28;20062;-53
2020/12/22 04:43:26;;;;;;;58.92;8.40;;;12.50;99.90;;;;;;5090128;28;20097;-51
2020/12/22 04:45:53;;;;;;;50.88;7.10;;;12.40;99.90;;;;;;5090118;28;20440;-51
2020/12/22 04:48:22;;;;;;;51.30;6.60;;;12.40;99.90;;;;;;5090365;28;20039;-52
2020/12/22 04:50:48;;;;;;;61.15;7.82;;;12.40;99.90;;;;;;5087646;28;20513;-54
2020/12/22 04:53:14;;;;;;;60.55;7.18;;;12.40;99.90;;;;;;5091070;28;20032;-52
2020/12/22 04:55:40;;;;;;;76.60;7.43;;;12.30;99.90;;;;;;5091204;28;20028;-52
2020/12/22 04:58:06;;;;;;;56.70;7.75;;;12.30;99.90;;;;;;5090937;28;20048;-53
2020/12/22 05:00:32;;;;;;;45.60;7.18;;;12.30;99.90;;;;;;5091021;28;20032;-53
2020/12/22 05:03:00;;;;;;;70.03;7.43;;;12.20;99.90;;;;;;5091046;28;20077;-53
2020/12/22 05:05:26;;;;;;;54.63;7.57;;;12.20;99.90;;;;;;5091029;28;20036;-52
2020/12/22 05:07:52;;;;;;;46.08;6.65;;;12.20;99.90;;;;;;5087028;28;20077;-53
2020/12/22 05:10:17;;;;;;;50.40;5.60;;;12.20;99.90;;;;;;5090955;28;20063;-49
2020/12/22 05:12:43;;;;;;;44.80;5.47;;;12.20;99.90;;;;;;5090961;28;20090;-48
2020/12/22 05:15:10;;;;;;;52.75;5.57;;;12.20;99.90;;;;;;5090856;28;20039;-49
2020/12/22 05:17:44;;;;;;;49.90;5.20;;;12.20;99.90;;;;;;5091157;28;20070;-50
2020/12/22 05:20:14;;;;;;;42.92;6.30;;;12.20;99.90;;;;;;5086917;28;20382;-50
2020/12/22 05:22:40;;;;;;;41.47;5.90;;;12.20;99.90;;;;;;5090399;28;20044;-49
2020/12/22 05:25:06;;;;;;;59.40;7.10;;;12.10;99.90;;;;;;5090638;28;20047;-49
2020/12/22 05:27:32;;;;;;;44.50;6.57;;;12.10;99.90;;;;;;5090303;28;20028;-49
2020/12/22 05:30:00;;;;;;;54.13;6.70;;;12.10;99.90;;;;;;5090524;28;20059;-51
2020/12/22 05:32:27;;;;;;;46.25;6.43;;;12.10;99.90;;;;;;5090620;28;20028;-49
2020/12/22 05:34:54;;;;;;;34.63;5.72;;;12.10;99.90;;;;;;5089423;28;20028;-50
2020/12/22 05:37:24;;;;;;;52.38;7.35;;;12.10;99.90;;;;;;5090101;28;20043;-49
2020/12/22 05:39:51;;;;;;;47.05;6.50;;;12.10;99.90;;;;;;5090191;28;20040;-49
2020/12/22 05:42:17;;;;;;;48.22;5.57;;;12.00;99.90;;;;;;5089813;28;20130;-49
2020/12/22 05:44:52;;;;;;;49.15;6.35;;;12.10;99.90;;;;;;5089970;28;20112;-49
2020/12/22 05:47:20;;;;;;;40.78;5.85;;;12.00;99.90;;;;;;5084895;28;20379;-47
2020/12/22 05:50:04;;;;;;;48.95;6.88;;;12.10;99.90;;;;;;5069103;28;20494;-48
2020/12/22 05:52:31;;;;;;;63.13;6.53;;;12.10;99.90;;;;;;5069200;28;20037;-49
2020/12/22 05:54:58;;;;;;;58.95;5.90;;;12.00;99.90;;;;;;5069277;28;20498;-47
2020/12/22 05:57:25;;;;;;;48.42;5.78;;;12.00;99.90;;;;;;5069320;28;20123;-49
2020/12/22 05:59:51;;;;;;;65.25;7.20;;;12.00;99.90;;;;;;5069130;28;20041;-48
2020/12/22 06:02:25;;;;;;;71.60;8.38;;;12.00;99.90;;;;;;5066418;28;20404;-49
2020/12/22 06:04:59;;;;;;;62.67;7.47;;;12.10;99.90;;;;;;5068442;28;20522;-48
2020/12/22 06:07:26;;;;;;;54.88;6.45;;;12.10;99.90;;;;;;5068415;28;20036;-48
2020/12/22 06:09:53;;;;;;;53.60;5.93;;;12.10;99.90;;;;;;5068312;28;20033;-50
2020/12/22 06:12:20;;;;;;;66.25;6.70;;;12.00;99.90;;;;;;5069128;28;20036;-49
2020/12/22 06:14:51;;;;;;;59.92;6.82;;;12.10;99.90;;;;;;5070391;28;20116;-49
2020/12/22 06:17:16;;;;;;;52.53;6.90;;;12.10;99.90;;;;;;5079519;28;20055;-52
2020/12/22 06:19:44;;;;;;;49.63;7.78;;;12.10;99.90;;;;;;5076779;28;20155;-49
2020/12/22 06:22:12;;;;;;;61.40;6.25;;;12.10;99.90;;;;;;5073050;28;20026;-50
2020/12/22 06:24:37;;;;;;;50.35;6.93;;;12.00;99.90;;;;;;5085238;28;20481;-49
2020/12/22 06:27:05;;;;;;;43.50;4.82;;;12.10;99.90;;;;;;5078988;28;20027;-49
2020/12/22 06:29:32;;;;;;;48.40;5.95;;;12.10;99.90;;;;;;5085395;28;20036;-49
2020/12/22 06:32:16;;;;;;;40.78;5.35;;;12.10;99.90;;;;;;5085015;28;20020;-48
2020/12/22 06:34:43;;;;;;;54.55;7.85;;;12.10;99.90;;;;;;5084244;28;20104;-49
2020/12/22 06:37:09;;;;;;;57.15;5.78;;;12.10;99.90;;;;;;5081913;28;20921;-47
2020/12/22 06:39:49;;;;;;;73.07;8.93;;;12.00;99.90;;;;;;5073590;28;20532;-48
2020/12/22 06:42:30;;;;;;;64.57;6.60;;;12.00;99.90;;;;;;5083729;28;20074;-50
2020/12/22 06:45:29;;;;;;;42.58;5.07;;;12.00;99.90;;;;;;5079127;28;20040;-51
2020/12/22 06:47:55;;;;;;;34.78;5.18;;;12.00;99.90;;;;;;5085435;28;20027;-49
2020/12/22 06:50:41;;;;;;;33.70;4.47;;;12.00;99.90;;;;;;5090429;28;20112;-49
2020/12/22 06:53:34;;;;;;;37.28;4.78;;;12.00;99.90;;;;;;5070873;28;20450;-51
2020/12/22 06:56:00;;;;;;;34.00;4.23;;;12.00;99.90;;;;;;5080804;28;20036;-48
2020/12/22 06:58:44;;;;;;;40.50;4.93;;;12.10;99.90;;;;;;5088831;28;20325;-50
2020/12/22 07:01:29;;;;;;;42.55;6.05;;;12.10;99.90;;;;;;5090171;28;20511;-49
2020/12/22 07:04:21;;;;;;;49.17;5.68;;;12.10;99.90;;;;;;5077785;28;20028;-48
2020/12/22 07:06:47;;;;;;;45.42;5.53;;;12.10;99.90;;;;;;5090797;28;20415;-48
2020/12/22 07:09:42;;;;;;;47.10;5.88;;;12.20;99.90;;;;;;5080348;28;20034;-48
2020/12/22 07:12:08;;;;;;;48.17;4.72;;;12.20;99.90;;;;;;5068731;28;20111;-48
2020/12/22 07:14:38;;;;;;;46.78;5.35;;;12.20;99.90;;;;;;5082332;28;20716;-49
2020/12/22 07:17:04;;;;;;;32.05;4.90;;;12.20;99.90;;;;;;5087340;28;20073;-51
2020/12/22 07:19:33;;;;;;;28.02;4.60;;;12.20;99.90;;;;;;5087112;28;20032;-48
2020/12/22 07:22:07;;;;;;;42.22;4.65;;;12.10;99.90;;;;;;5089793;28;20028;-49
2020/12/22 07:24:34;;;;;;;37.30;4.57;;;12.10;99.90;;;;;;5088539;28;20059;-49
2020/12/22 07:27:01;;;;;;;48.28;5.68;;;12.10;99.90;;;;;;5087940;28;20040;-49
2020/12/22 07:29:27;;;;;;;51.65;5.75;;;12.20;99.90;;;;;;5087398;28;20039;-49
2020/12/22 07:31:53;;;;;;;35.15;4.22;;;12.10;99.90;;;;;;5089665;28;20032;-50
2020/12/22 07:34:20;;;;;;;40.97;5.60;;;12.20;99.90;;;;;;5086478;28;20136;-50
2020/12/22 07:36:46;;;;;;;35.03;5.30;;;12.20;99.90;;;;;;5087691;28;20036;-49
2020/12/22 07:39:32;;;;;;;37.90;5.13;;;12.10;99.90;;;;;;5086579;28;20085;-51
2020/12/22 07:42:17;;;;;;;53.95;5.60;;;12.10;99.90;;;;;;5090011;28;20591;-49
2020/12/22 07:44:45;;;;;;;38.38;5.18;;;12.10;99.90;;;;;;5090484;28;20082;-50
2020/12/22 07:47:11;;;;;;;40.83;5.50;;;12.10;99.90;;;;;;5087627;28;20036;-52
2020/12/22 07:49:38;;;;;;;46.45;6.22;;;12.10;99.90;;;;;;5081860;28;20056;-52
2020/12/22 07:52:04;;;;;;;43.42;4.90;;;12.10;99.90;;;;;;5070643;28;20031;-50
2020/12/22 07:54:30;;;;;;;41.45;4.95;;;12.10;99.90;;;;;;5072689;28;20025;-51
2020/12/22 07:57:00;;;;;;;45.22;5.63;;;12.10;99.90;;;;;;5070234;28;20032;-52
2020/12/22 07:59:27;;;;;;;34.03;4.25;;;12.00;99.90;;;;;;5069317;28;20052;-50
2020/12/22 08:01:54;;;;;;;46.80;6.07;;;12.00;99.90;;;;;;5070391;28;20040;-48
2020/12/22 08:04:25;;;;;;;43.97;5.25;;;12.00;99.90;;;;;;5078235;28;20056;-49
2020/12/22 08:06:57;;;;;;;41.53;5.53;;;11.90;99.90;;;;;;5069707;28;20754;-50
2020/12/22 08:09:28;;;;;;;48.67;5.28;;;11.90;99.90;;;;;;5069281;28;20036;-50
2020/12/22 08:11:57;;;;;;;40.22;4.57;;;11.80;99.90;;;;;;5070310;28;20036;-52
2020/12/22 08:14:24;;;;;;;49.88;5.43;;;11.80;99.90;;;;;;5070218;28;20033;-50
2020/12/22 08:17:00;;;;;;;37.90;5.15;;;11.90;99.90;;;;;;5070206;28;20035;-49
2020/12/22 08:19:35;;;;;;;45.85;5.22;;;11.90;99.90;;;;;;5070046;28;20135;-49
2020/12/22 08:22:02;;;;;;;38.42;5.10;;;11.80;99.90;;;;;;5069669;28;20032;-53
2020/12/22 08:24:29;;;;;;;33.85;4.35;;;11.80;99.90;;;;;;5069810;28;20056;-49
2020/12/22 08:26:55;;;;;;;41.30;4.53;;;11.90;99.90;;;;;;5069734;28;20041;-52
2020/12/22 08:29:21;;;;;;;37.17;4.47;;;11.80;99.90;;;;;;5069721;28;20028;-53
2020/12/22 08:31:47;;;;;;;31.63;4.57;;;11.80;99.90;;;;;;5069783;28;20032;-51
2020/12/22 08:34:17;;;;;;;45.13;5.15;;;11.80;99.90;;;;;;5078126;28;20111;-52
2020/12/22 08:36:46;;;;;;;34.90;5.18;;;11.80;99.90;;;;;;5089920;28;20033;-50
2020/12/22 08:39:24;;;;;;;49.90;5.22;;;11.80;99.90;;;;;;5069629;28;20097;-49
2020/12/22 08:41:55;;;;;;;53.95;6.15;;;11.80;99.90;;;;;;5069447;28;20033;-50
2020/12/22 08:44:23;;;;;;;47.88;5.57;;;11.80;99.90;;;;;;5069166;28;20526;-49
2020/12/22 08:46:49;;;;;;;36.08;4.65;;;11.80;99.90;;;;;;5069650;28;20564;-51
2020/12/22 08:49:16;;;;;;;54.28;5.88;;;11.80;99.90;;;;;;5069486;28;20024;-50
2020/12/22 08:51:44;;;;;;;51.83;5.53;;;11.80;99.90;;;;;;5088535;28;20039;-50
2020/12/22 08:54:10;;;;;;;57.85;6.32;;;11.90;99.90;;;;;;5072045;28;20037;-53
2020/12/22 08:56:39;;;;;;;63.10;5.90;;;11.90;99.90;;;;;;5083001;28;20452;-49
2020/12/22 08:59:12;;;;;;;56.10;6.72;;;11.90;99.90;;;;;;5069943;28;20064;-49
2020/12/22 09:01:40;;;;;;;61.30;6.68;;;11.90;99.90;;;;;;5079223;28;20036;-50
2020/12/22 09:04:05;;;;;;;43.08;5.72;;;12.00;99.90;;;;;;5069668;28;20028;-52
2020/12/22 09:06:36;;;;;;;48.97;8.18;;;12.00;99.90;;;;;;5069753;28;20036;-49
2020/12/22 09:09:17;;;;;;;45.05;6.82;;;12.10;99.90;;;;;;5069737;28;20462;-47
2020/12/22 09:11:45;;;;;;;45.58;5.30;;;12.10;99.90;;;;;;5067058;28;20032;-50
2020/12/22 09:14:12;;;;;;;52.05;6.50;;;12.10;99.90;;;;;;5075506;28;20165;-50
2020/12/22 09:16:51;;;;;;;49.33;6.75;;;12.20;99.90;;;;;;5087154;28;20031;-51
2020/12/22 09:19:19;;;;;;;47.80;6.68;;;12.30;99.90;;;;;;5076680;28;20033;-51
2020/12/22 09:21:46;;;;;;;43.70;5.68;;;12.30;99.90;;;;;;5068981;28;20462;-51
2020/12/22 09:24:16;;;;;;;39.50;5.95;;;12.30;99.90;;;;;;5075435;28;20060;-51
2020/12/22 09:26:55;;;;;;;55.42;5.97;;;12.40;99.90;;;;;;5086428;28;20370;-51
2020/12/22 09:29:21;;;;;;;41.22;5.72;;;12.40;99.90;;;;;;5072788;28;20097;-53
2020/12/22 09:31:47;;;;;;;35.30;4.50;;;12.40;99.90;;;;;;5088796;28;20085;-51
2020/12/22 09:34:13;;;;;;;40.25;5.07;;;12.40;99.90;;;;;;5077959;28;20027;-49
2020/12/22 09:36:38;;;;;;;34.72;4.00;;;12.60;99.90;;;;;;5071209;28;20049;-50
2020/12/22 09:39:04;;;;;;;27.70;4.00;;;12.60;99.90;;;;;;5068333;28;20071;-51
2020/12/22 09:41:30;;;;;;;44.70;5.53;;;12.60;99.90;;;;;;5083477;28;20034;-50
2020/12/22 09:43:56;;;;;;;40.38;4.75;;;12.70;99.90;;;;;;5073339;28;20028;-50
2020/12/22 09:46:22;;;;;;;30.75;4.65;;;12.60;99.90;;;;;;5068461;28;20036;-53
2020/12/22 09:48:48;;;;;;;42.13;5.05;;;12.60;99.90;;;;;;5083922;28;20064;-51
2020/12/22 09:51:14;;;;;;;41.72;5.97;;;12.70;99.90;;;;;;5070231;28;20453;-52
2020/12/22 09:53:40;;;;;;;36.88;5.25;;;12.80;99.90;;;;;;5078012;28;20782;-51
2020/12/22 09:56:06;;;;;;;36.53;4.85;;;12.80;99.90;;;;;;5088766;28;20054;-54
2020/12/22 09:58:31;;;;;;;44.78;4.55;;;12.70;99.90;;;;;;5074222;28;20063;-53
2020/12/22 10:00:57;;;;;;;38.45;5.03;;;12.70;99.90;;;;;;5068505;28;20036;-50
2020/12/22 10:03:22;;;;;;;40.42;5.38;;;12.70;99.90;;;;;;5068023;28;20036;-50
2020/12/22 10:05:48;;;;;;;39.25;4.50;;;12.60;99.90;;;;;;5067777;28;20024;-52
2020/12/22 10:08:14;;;;;;;39.78;4.80;;;12.70;99.90;;;;;;5067815;28;20477;-52
2020/12/22 10:10:40;;;;;;;24.17;4.50;;;12.70;99.90;;;;;;5062991;28;20031;-54
2020/12/22 10:13:05;;;;;;;34.85;4.38;;;12.70;99.90;;;;;;5083125;28;20442;-52
2020/12/22 10:15:31;;;;;;;37.03;5.15;;;12.70;99.90;;;;;;5087598;28;20643;-52
2020/12/22 10:17:56;;;;;;;44.28;5.18;;;12.70;99.90;;;;;;5078811;28;20036;-52
2020/12/22 10:20:22;;;;;;;38.17;4.43;;;12.70;99.90;;;;;;5068260;28;20036;-51
2020/12/22 10:22:48;;;;;;;28.73;4.47;;;12.70;99.90;;;;;;5081874;28;20140;-51
2020/12/22 10:25:13;;;;;;;30.63;4.43;;;12.70;99.90;;;;;;5088347;28;20711;-50
2020/12/22 10:27:39;;;;;;;32.13;3.97;;;12.70;99.90;;;;;;5088042;28;20028;-52
2020/12/22 10:30:05;;;;;;;30.20;3.95;;;12.70;99.90;;;;;;5088091;28;20036;-50
2020/12/22 10:32:31;;;;;;;25.90;3.65;;;12.80;99.90;;;;;;5088006;28;20517;-52
2020/12/22 10:34:57;;;;;;;37.42;4.28;;;12.90;99.90;;;;;;5084461;28;20114;-49
2020/12/22 10:37:23;;;;;;;43.45;5.47;;;12.90;99.90;;;;;;5067872;28;20036;-50
2020/12/22 10:39:51;;;;;;;42.17;4.72;;;12.90;99.90;;;;;;5068079;28;20127;-52
2020/12/22 10:42:20;;;;;;;46.10;4.85;;;12.90;99.90;;;;;;5067846;28;20086;-52
2020/12/22 10:44:46;;;;;;;26.83;3.60;;;12.90;99.90;;;;;;5068350;28;20028;-51
2020/12/22 10:47:11;;;;;;;32.55;4.30;;;12.90;99.90;;;;;;5067809;28;20454;-50
2020/12/22 10:49:37;;;;;;;34.30;4.22;;;12.90;99.90;;;;;;5050139;28;20033;-50
2020/12/22 10:52:03;;;;;;;38.25;5.70;;;13.00;99.90;;;;;;5067611;28;20036;-52
2020/12/22 10:54:29;;;;;;;31.42;4.45;;;13.10;99.90;;;;;;5067718;28;20116;-51
2020/12/22 10:56:55;;;;;;;33.13;4.78;;;13.20;99.90;;;;;;5068232;28;20442;-49
2020/12/22 10:59:20;;;;;;;32.38;4.38;;;13.30;99.90;;;;;;5067715;28;20483;-51
2020/12/22 11:01:51;;;;;;;28.13;3.85;;;13.40;99.90;;;;;;5068108;28;20032;-50
2020/12/22 11:04:17;;;;;;;35.75;4.70;;;13.30;99.90;;;;;;5067220;28;20039;-52
2020/12/22 11:09:08;;;;;;;29.25;3.95;;;13.40;99.90;;;;;;5067427;28;20036;-50
2020/12/22 11:11:34;;;;;;;34.92;3.88;;;13.30;99.90;;;;;;5049911;28;20207;-50
2020/12/22 11:13:59;;;;;;;26.67;3.72;;;13.40;99.90;;;;;;5067369;28;20032;-48
2020/12/22 11:16:26;;;;;;;28.55;4.22;;;13.30;99.90;;;;;;5068145;28;20056;-49
2020/12/22 11:18:52;;;;;;;17.63;3.05;;;13.30;99.90;;;;;;5067235;28;20042;-51
2020/12/22 11:21:20;;;;;;;28.83;3.85;;;13.10;99.90;;;;;;5067739;28;20036;-51
2020/12/22 11:23:46;;;;;;;27.63;3.78;;;13.10;99.90;;;;;;5067325;28;20048;-50
2020/12/22 11:26:19;;;;;;;20.95;3.00;;;13.10;99.90;;;;;;5067691;28;20081;-50
2020/12/22 11:28:45;;;;;;;31.88;3.67;;;13.10;99.90;;;;;;5067398;28;20036;-52
2020/12/22 11:31:10;;;;;;;28.30;3.72;;;13.00;99.90;;;;;;5067617;28;20033;-50
2020/12/22 11:33:39;;;;;;;23.48;3.67;;;12.90;99.90;;;;;;5068177;28;20033;-51
2020/12/22 11:36:05;;;;;;;19.38;3.00;;;12.90;99.90;;;;;;5071247;28;20044;-51
2020/12/22 11:38:30;;;;;;;26.38;3.22;;;13.00;99.90;;;;;;5070686;28;20044;-51
2020/12/22 11:40:57;;;;;;;23.52;2.95;;;13.00;99.90;;;;;;5070986;28;20451;-53
2020/12/22 11:43:23;;;;;;;24.48;3.78;;;13.00;99.90;;;;;;5070707;28;20024;-53
2020/12/22 11:45:48;;;;;;;24.05;3.13;;;13.00;99.90;;;;;;5073116;28;20100;-49
2020/12/22 11:48:14;;;;;;;22.63;3.97;;;12.90;99.90;;;;;;5052508;28;20033;-53
2020/12/22 11:50:40;;;;;;;25.27;3.28;;;12.90;99.90;;;;;;5070827;28;20028;-52
2020/12/22 11:53:05;;;;;;;26.85;3.00;;;12.80;99.90;;;;;;5070911;28;20639;-53
2020/12/22 11:55:31;;;;;;;24.67;3.92;;;12.80;99.90;;;;;;5070869;28;20099;-55
2020/12/22 11:57:57;;;;;;;22.33;3.40;;;12.70;99.90;;;;;;5070626;28;20107;-50
2020/12/22 12:00:22;;;;;;;22.42;2.47;;;12.60;99.90;;;;;;5070513;28;20035;-54
2020/12/22 12:02:48;;;;;;;12.52;2.78;;;12.50;99.90;;;;;;5070070;28;20166;-52
2020/12/22 12:05:14;;;;;;;10.02;2.03;;;12.70;99.90;;;;;;5070335;28;20535;-54
2020/12/22 12:07:39;;;;;;;11.63;1.58;;;12.60;99.90;;;;;;5070951;28;20032;-52
2020/12/22 12:10:05;;;;;;;6.40;1.40;;;12.50;99.90;;;;;;5052469;28;20036;-55
2020/12/22 12:12:30;;;;;;;9.25;1.33;;;12.30;99.90;;;;;;5070317;28;20036;-53
2020/12/22 12:14:56;;;;;;;10.48;1.67;;;12.30;99.90;;;;;;5070534;28;20085;-50
2020/12/22 12:17:22;;;;;;;14.10;1.80;;;12.30;99.90;;;;;;5069933;28;20043;-50
2020/12/22 12:19:47;;;;;;;6.90;1.15;;;12.30;99.90;;;;;;5070046;28;20044;-52
2020/12/22 12:22:13;;;;;;;17.92;2.05;;;12.20;99.90;;;;;;5070027;28;20029;-50
2020/12/22 12:24:39;;;;;;;11.45;1.60;;;12.30;99.90;;;;;;5070145;28;20067;-50
2020/12/22 12:27:04;;;;;;;6.80;1.30;;;12.30;99.90;;;;;;5069763;28;20047;-50
2020/12/22 12:29:30;;;;;;;3.97;1.23;;;12.20;99.90;;;;;;5069638;28;20043;-50
2020/12/22 12:31:55;;;;;;;10.32;1.27;;;12.20;99.90;;;;;;5070500;28;20058;-54
2020/12/22 12:34:21;;;;;;;6.13;1.30;;;12.30;99.90;;;;;;5070415;28;20051;-52
2020/12/22 12:36:50;;;;;;;3.30;0.80;;;12.30;99.90;;;;;;5070355;28;20059;-54
2020/12/22 12:39:16;;;;;;;4.35;1.20;;;12.40;99.90;;;;;;5070122;28;20163;-52